createdAt,value
2022-08-05T00:00:18.363Z,21.70
2022-08-05T00:02:51.098Z,21.60
2022-08-05T00:06:02.090Z,21.60
2022-08-05T00:08:32.816Z,21.60
2022-08-05T00:11:01.471Z,21.50
2022-08-05T00:13:38.730Z,21.50
2022-08-05T00:16:12.964Z,21.50
2022-08-05T00:18:48.081Z,21.50
2022-08-05T00:21:18.117Z,21.40
2022-08-05T00:24:06.150Z,21.40
2022-08-05T00:26:34.742Z,21.30
2022-08-05T00:29:01.819Z,21.40
2022-08-05T00:31:53.658Z,21.30
2022-08-05T00:34:56.127Z,21.30
2022-08-05T00:37:09.987Z,21.30
2022-08-05T00:39:57.317Z,21.30
2022-08-05T00:42:37.724Z,21.20
2022-08-05T00:45:08.520Z,21.20
2022-08-05T00:47:56.870Z,21.10
2022-08-05T00:50:27.795Z,21.10
2022-08-05T00:52:55.527Z,21.10
2022-08-05T00:55:42.159Z,21.10
2022-08-05T00:58:11.919Z,21.00
2022-08-05T01:00:40.270Z,21.00
2022-08-05T01:03:12.654Z,21.00
2022-08-05T01:05:51.749Z,20.90
2022-08-05T01:08:41.181Z,20.90
2022-08-05T01:11:22.268Z,20.90
2022-08-05T01:13:59.598Z,20.90
2022-08-05T01:16:52.340Z,20.80
2022-08-05T01:19:46.080Z,20.80
2022-08-05T01:22:37.552Z,20.80
2022-08-05T01:25:53.702Z,20.70
2022-08-05T01:28:20.980Z,20.70
2022-08-05T01:31:09.519Z,20.70
2022-08-05T01:33:58.867Z,20.60
2022-08-05T01:36:32.824Z,20.60
2022-08-05T01:39:01.426Z,20.60
2022-08-05T01:41:34.569Z,20.50
2022-08-05T01:44:03.549Z,20.60
2022-08-05T01:46:46.093Z,20.50
2022-08-05T01:49:24.101Z,20.50
2022-08-05T01:51:59.736Z,20.50
2022-08-05T01:54:45.759Z,20.40
2022-08-05T01:58:13.192Z,20.40
2022-08-05T02:00:11.938Z,20.40
2022-08-05T02:02:51.377Z,20.30
2022-08-05T02:05:34.280Z,20.40
2022-08-05T02:08:03.743Z,20.40
2022-08-05T02:10:44.769Z,20.30
2022-08-05T02:13:27.922Z,20.40
2022-08-05T02:16:46.481Z,20.30
2022-08-05T02:19:41.374Z,20.20
2022-08-05T02:22:32.989Z,20.20
2022-08-05T02:25:12.601Z,20.10
2022-08-05T02:27:58.601Z,20.10
2022-08-05T02:30:36.953Z,20.10
2022-08-05T02:33:06.700Z,20.00
2022-08-05T02:35:37.692Z,20.00
2022-08-05T02:38:13.250Z,20.00
2022-08-05T02:40:47.538Z,20.00
2022-08-05T02:43:16.813Z,20.00
2022-08-05T02:45:52.672Z,20.00
2022-08-05T02:48:29.445Z,20.00
2022-08-05T02:51:01.230Z,20.00
2022-08-05T02:53:39.005Z,20.00
2022-08-05T02:56:15.979Z,20.00
2022-08-05T02:58:51.541Z,19.90
2022-08-05T03:01:25.120Z,19.90
2022-08-05T03:04:02.230Z,19.90
2022-08-05T03:06:54.659Z,19.90
2022-08-05T03:09:27.155Z,19.90
2022-08-05T03:12:06.895Z,19.90
2022-08-05T03:14:39.032Z,19.80
2022-08-05T03:17:13.369Z,19.90
2022-08-05T03:19:45.833Z,19.80
2022-08-05T03:22:16.676Z,19.80
2022-08-05T03:24:51.119Z,19.70
2022-08-05T03:27:21.450Z,19.70
2022-08-05T03:30:07.812Z,19.70
2022-08-05T03:32:37.705Z,19.70
2022-08-05T03:35:06.002Z,19.70
2022-08-05T03:37:46.370Z,19.70
2022-08-05T03:40:15.453Z,19.70
2022-08-05T03:42:52.911Z,19.60
2022-08-05T03:45:23.093Z,19.60
2022-08-05T03:47:51.950Z,19.60
2022-08-05T03:50:25.809Z,19.60
2022-08-05T03:55:34.462Z,19.60
2022-08-05T03:56:31.884Z,19.60
2022-08-05T03:59:04.171Z,19.50
2022-08-05T04:01:37.641Z,19.50
2022-08-05T04:04:10.132Z,19.50
2022-08-05T04:06:47.969Z,19.50
2022-08-05T04:09:26.132Z,19.50
2022-08-05T04:11:56.577Z,19.50
2022-08-05T04:14:29.923Z,19.50
2022-08-05T04:17:00.774Z,19.50
2022-08-05T04:19:29.820Z,19.50
2022-08-05T04:22:08.715Z,19.50
2022-08-05T04:24:52.747Z,19.50
2022-08-05T04:27:41.916Z,19.50
2022-08-05T04:30:09.697Z,19.50
2022-08-05T04:32:37.622Z,19.60
2022-08-05T04:35:05.997Z,19.60
2022-08-05T04:38:02.976Z,19.60
2022-08-05T04:40:21.272Z,19.60
2022-08-05T04:42:48.321Z,19.60
2022-08-05T04:45:23.070Z,19.60
2022-08-05T04:48:18.379Z,19.60
2022-08-05T04:51:03.304Z,19.60
2022-08-05T04:53:39.093Z,19.70
2022-08-05T04:56:32.400Z,19.70
2022-08-05T04:58:59.743Z,19.70
2022-08-05T05:02:35.252Z,19.80
2022-08-05T05:04:34.380Z,19.80
2022-08-05T05:07:09.482Z,19.90
2022-08-05T05:09:37.471Z,19.90
2022-08-05T05:12:06.336Z,20.00
2022-08-05T05:14:36.200Z,20.00
2022-08-05T05:17:03.684Z,20.10
2022-08-05T05:19:37.140Z,20.10
2022-08-05T05:22:23.965Z,20.20
2022-08-05T05:24:57.493Z,20.20
2022-08-05T05:27:45.741Z,20.30
2022-08-05T05:30:29.783Z,20.40
2022-08-05T05:33:09.121Z,20.50
2022-08-05T05:35:47.094Z,20.60
2022-08-05T05:38:22.614Z,20.70
2022-08-05T05:40:57.638Z,20.70
2022-08-05T05:43:54.442Z,20.80
2022-08-05T05:46:17.664Z,20.90
2022-08-05T05:48:48.705Z,21.00
2022-08-05T05:51:25.725Z,21.10
2022-08-05T05:53:58.679Z,21.20
2022-08-05T05:56:34.097Z,21.30
2022-08-05T05:59:05.729Z,21.40
2022-08-05T06:01:37.477Z,21.50
2022-08-05T06:04:14.591Z,21.50
2022-08-05T06:06:47.817Z,21.70
2022-08-05T06:09:27.484Z,21.80
2022-08-05T06:12:04.367Z,21.90
2022-08-05T06:14:33.366Z,22.00
2022-08-05T06:17:22.586Z,22.10
2022-08-05T06:19:56.818Z,22.20
2022-08-05T06:22:33.662Z,22.40
2022-08-05T06:25:59.028Z,22.50
2022-08-05T06:28:11.848Z,22.50
2022-08-05T06:30:38.120Z,22.70
2022-08-05T06:33:05.165Z,22.70
2022-08-05T06:36:07.450Z,22.80
2022-08-05T06:38:35.867Z,22.90
2022-08-05T06:41:05.263Z,23.00
2022-08-05T06:43:58.622Z,23.10
2022-08-05T06:46:29.903Z,23.20
2022-08-05T06:48:59.672Z,23.30
2022-08-05T06:51:30.682Z,23.40
2022-08-05T06:54:04.020Z,23.50
2022-08-05T06:56:34.346Z,23.50
2022-08-05T06:59:09.698Z,23.70
2022-08-05T07:01:40.773Z,23.80
2022-08-05T07:04:09.565Z,23.80
2022-08-05T07:06:37.055Z,23.90
2022-08-05T07:09:04.886Z,24.00
2022-08-05T07:11:36.808Z,24.20
2022-08-05T07:14:29.530Z,24.30
2022-08-05T07:17:58.405Z,24.40
2022-08-05T07:22:41.911Z,24.70
2022-08-05T07:25:54.190Z,24.80
2022-08-05T07:28:03.869Z,24.90
2022-08-05T07:30:38.265Z,25.00
2022-08-05T07:33:09.339Z,25.10
2022-08-05T07:36:04.263Z,25.20
2022-08-05T07:38:34.341Z,25.30
2022-08-05T07:42:06.944Z,25.40
2022-08-05T07:43:57.716Z,25.60
2022-08-05T07:46:30.778Z,25.80
2022-08-05T07:49:05.008Z,25.80
2022-08-05T07:51:48.482Z,25.90
2022-08-05T07:54:23.345Z,26.00
2022-08-05T07:57:02.367Z,26.00
2022-08-05T07:59:41.968Z,26.10
2022-08-05T08:02:16.649Z,26.20
2022-08-05T08:04:49.228Z,26.30
2022-08-05T08:07:22.407Z,26.30
2022-08-05T08:09:53.033Z,26.40
2022-08-05T08:12:37.547Z,26.60
2022-08-05T08:15:15.252Z,26.70
2022-08-05T08:17:52.393Z,26.80
2022-08-05T08:21:01.031Z,26.90
2022-08-05T08:24:01.931Z,26.90
2022-08-05T08:26:02.675Z,27.00
2022-08-05T08:28:36.868Z,27.10
2022-08-05T08:31:09.876Z,27.10
2022-08-05T08:33:42.415Z,27.20
2022-08-05T08:36:39.262Z,27.30
2022-08-05T08:38:58.510Z,27.50
2022-08-05T08:41:50.945Z,27.60
2022-08-05T08:45:19.418Z,27.60
2022-08-05T08:47:47.014Z,27.80
2022-08-05T08:50:23.417Z,27.90
2022-08-05T08:52:58.501Z,28.10
2022-08-05T08:55:32.030Z,28.20
2022-08-05T08:58:15.617Z,28.30
2022-08-05T09:00:44.405Z,28.40
2022-08-05T09:03:12.438Z,28.50
2022-08-05T09:06:07.928Z,28.70
2022-08-05T09:08:30.615Z,28.90
2022-08-05T09:10:58.958Z,29.00
2022-08-05T09:13:31.752Z,29.10
2022-08-05T09:16:14.714Z,29.20
2022-08-05T09:18:44.556Z,29.30
2022-08-05T09:21:21.235Z,29.40
2022-08-05T09:24:10.194Z,29.50
2022-08-05T09:26:37.555Z,29.60
2022-08-05T09:29:08.802Z,29.70
2022-08-05T09:32:40.886Z,29.80
2022-08-05T09:34:23.275Z,29.90
2022-08-05T09:36:54.805Z,30.10
2022-08-05T09:39:41.503Z,30.20
2022-08-05T09:42:17.323Z,30.40
2022-08-05T09:44:56.790Z,30.40
2022-08-05T09:47:48.011Z,30.50
2022-08-05T09:50:37.710Z,30.60
2022-08-05T09:53:05.559Z,30.80
2022-08-05T09:55:56.262Z,30.90
2022-08-05T09:58:25.347Z,31.00
2022-08-05T10:01:01.657Z,31.00
2022-08-05T10:03:58.566Z,31.10
2022-08-05T10:06:28.295Z,31.20
2022-08-05T10:08:56.907Z,31.30
2022-08-05T10:11:24.100Z,31.50
2022-08-05T10:13:58.544Z,31.70
2022-08-05T10:16:41.773Z,31.90
2022-08-05T10:19:23.571Z,32.00
2022-08-05T10:21:59.590Z,32.10
2022-08-05T10:24:28.641Z,32.10
2022-08-05T10:27:00.602Z,32.20
2022-08-05T10:30:40.931Z,32.30
2022-08-05T10:35:05.311Z,32.40
2022-08-05T10:37:40.193Z,32.50
2022-08-05T10:40:28.554Z,32.70
2022-08-05T10:43:11.128Z,32.80
2022-08-05T10:45:42.022Z,32.90
2022-08-05T10:48:35.298Z,32.90
2022-08-05T10:51:22.275Z,32.90
2022-08-05T10:54:01.540Z,33.00
2022-08-05T10:56:46.520Z,33.10
2022-08-05T11:00:03.677Z,33.10
2022-08-05T11:02:34.848Z,33.10
2022-08-05T11:05:10.634Z,33.20
2022-08-05T11:08:27.566Z,33.20
2022-08-05T11:11:00.172Z,33.30
2022-08-05T11:13:54.881Z,33.40
2022-08-05T11:16:47.824Z,33.40
2022-08-05T11:20:11.215Z,33.50
2022-08-05T11:22:43.092Z,33.70
2022-08-05T11:26:06.004Z,33.80
2022-08-05T11:28:17.517Z,34.00
2022-08-05T11:30:58.420Z,34.10
2022-08-05T11:33:43.980Z,34.10
2022-08-05T11:36:40.507Z,34.20
2022-08-05T11:39:12.093Z,34.40
2022-08-05T11:42:01.495Z,34.50
2022-08-05T11:44:40.351Z,34.50
2022-08-05T11:47:15.289Z,34.70
2022-08-05T11:49:49.858Z,34.80
2022-08-05T11:52:29.731Z,34.80
2022-08-05T11:54:59.565Z,34.90
2022-08-05T11:58:08.176Z,34.90
2022-08-05T12:00:30.886Z,35.00
2022-08-05T12:02:58.505Z,35.10
2022-08-05T12:05:32.396Z,35.30
2022-08-05T12:08:09.530Z,35.40
2022-08-05T12:10:45.567Z,35.50
2022-08-05T12:13:18.860Z,35.50
2022-08-05T12:16:14.615Z,35.70
2022-08-05T12:18:52.355Z,35.70
2022-08-05T12:21:30.675Z,35.80
2022-08-05T12:24:14.353Z,35.90
2022-08-05T12:26:50.734Z,36.10
2022-08-05T12:29:22.753Z,36.30
2022-08-05T12:32:02.246Z,36.20
2022-08-05T12:34:37.871Z,36.20
2022-08-05T12:37:17.691Z,36.20
2022-08-05T12:40:03.249Z,36.30
2022-08-05T12:42:39.223Z,36.40
2022-08-05T12:45:10.167Z,36.50
2022-08-05T12:47:38.603Z,36.60
2022-08-05T12:50:25.741Z,36.60
2022-08-05T12:52:59.708Z,36.80
2022-08-05T12:55:32.768Z,36.90
2022-08-05T12:58:50.395Z,36.80
2022-08-05T13:02:01.884Z,36.80
2022-08-05T13:03:41.380Z,36.80
2022-08-05T13:06:12.965Z,36.80
2022-08-05T13:08:40.673Z,37.00
2022-08-05T13:11:18.160Z,37.10
2022-08-05T13:14:24.843Z,37.10
2022-08-05T13:20:01.487Z,37.30
2022-08-05T13:22:29.988Z,37.40
2022-08-05T13:25:07.983Z,37.40
2022-08-05T13:27:53.528Z,37.50
2022-08-05T13:30:35.274Z,37.60
2022-08-05T13:33:04.101Z,37.70
2022-08-05T13:35:47.679Z,37.60
2022-08-05T13:38:30.809Z,37.60
2022-08-05T13:41:03.880Z,37.70
2022-08-05T13:43:44.020Z,37.80
2022-08-05T13:46:14.303Z,37.90
2022-08-05T13:48:57.601Z,38.00
2022-08-05T13:51:36.464Z,38.00
2022-08-05T13:54:12.570Z,38.10
2022-08-05T13:56:45.415Z,38.00
2022-08-05T13:59:27.011Z,38.10
2022-08-05T14:02:00.607Z,38.30
2022-08-05T14:04:54.457Z,38.40
2022-08-05T14:08:00.303Z,38.50
2022-08-05T14:10:19.074Z,38.50
2022-08-05T14:12:55.268Z,38.60
2022-08-05T14:16:09.007Z,38.60
2022-08-05T14:18:13.137Z,38.80
2022-08-05T14:20:46.931Z,38.90
2022-08-05T14:23:18.978Z,39.10
2022-08-05T14:25:53.252Z,39.20
2022-08-05T14:28:27.006Z,39.20
2022-08-05T14:30:56.172Z,39.30
2022-08-05T14:33:24.775Z,39.20
2022-08-05T14:35:54.100Z,39.20
2022-08-05T14:38:33.000Z,39.20
2022-08-05T14:41:07.548Z,39.30
2022-08-05T14:43:58.863Z,39.30
2022-08-05T14:46:28.447Z,39.30
2022-08-05T14:48:59.722Z,39.30
2022-08-05T14:51:33.475Z,39.20
2022-08-05T14:54:27.027Z,39.10
2022-08-05T14:56:48.949Z,39.00
2022-08-05T14:59:18.430Z,38.90
2022-08-05T15:01:49.807Z,38.90
2022-08-05T15:04:22.446Z,38.80
2022-08-05T15:06:53.475Z,38.90
2022-08-05T15:09:51.790Z,38.70
2022-08-05T15:12:11.578Z,38.80
2022-08-05T15:14:50.050Z,38.80
2022-08-05T15:17:46.651Z,38.80
2022-08-05T15:20:19.103Z,38.80
2022-08-05T15:22:54.354Z,38.80
2022-08-05T15:25:41.362Z,38.80
2022-08-05T15:28:14.647Z,38.90
2022-08-05T15:30:45.608Z,38.90
2022-08-05T15:33:56.403Z,38.90
2022-08-05T15:36:16.776Z,38.80
2022-08-05T15:38:46.654Z,38.80
2022-08-05T15:41:22.413Z,38.80
2022-08-05T15:43:54.793Z,38.70
2022-08-05T15:46:24.171Z,38.60
2022-08-05T15:48:58.571Z,38.60
2022-08-05T15:52:12.450Z,38.40
2022-08-05T15:54:17.246Z,38.30
2022-08-05T15:56:44.449Z,38.00
2022-08-05T15:59:21.923Z,37.80
2022-08-05T16:01:53.687Z,37.60
2022-08-05T16:04:25.134Z,37.40
2022-08-05T16:06:55.535Z,37.30
2022-08-05T16:09:24.318Z,37.10
2022-08-05T16:11:54.073Z,36.80
2022-08-05T16:14:22.617Z,36.60
2022-08-05T16:16:50.340Z,36.50
2022-08-05T16:19:25.650Z,36.20
2022-08-05T16:22:05.802Z,36.00
2022-08-05T16:24:39.998Z,35.90
2022-08-05T16:27:10.019Z,35.70
2022-08-05T16:29:47.493Z,35.50
2022-08-05T16:32:28.509Z,35.40
2022-08-05T16:34:58.709Z,35.20
2022-08-05T16:38:02.871Z,35.00
2022-08-05T16:40:26.746Z,34.80
2022-08-05T16:42:56.614Z,34.70
2022-08-05T16:46:07.434Z,34.50
2022-08-05T16:48:10.840Z,34.40
2022-08-05T16:50:53.258Z,34.30
2022-08-05T16:53:23.252Z,34.10
2022-08-05T16:55:59.785Z,34.00
2022-08-05T16:58:26.942Z,33.90
2022-08-05T17:00:54.237Z,33.70
2022-08-05T17:03:22.251Z,33.60
2022-08-05T17:05:54.295Z,33.40
2022-08-05T17:08:35.886Z,33.40
2022-08-05T17:11:16.562Z,33.30
2022-08-05T17:13:50.390Z,33.10
2022-08-05T17:16:36.701Z,33.00
2022-08-05T17:19:09.721Z,32.90
2022-08-05T17:21:39.606Z,32.80
2022-08-05T17:24:19.810Z,32.70
2022-08-05T17:26:58.379Z,32.60
2022-08-05T17:29:33.719Z,32.50
2022-08-05T17:32:11.511Z,32.40
2022-08-05T17:34:44.360Z,32.30
2022-08-05T17:37:27.359Z,32.20
2022-08-05T17:40:00.875Z,32.10
2022-08-05T17:42:31.963Z,32.00
2022-08-05T17:45:09.827Z,31.90
2022-08-05T17:47:51.368Z,31.80
2022-08-05T17:50:29.005Z,31.70
2022-08-05T17:53:00.751Z,31.60
2022-08-05T17:55:34.200Z,31.60
2022-08-05T17:58:12.640Z,31.40
2022-08-05T18:00:47.588Z,31.30
2022-08-05T18:06:11.040Z,31.10
2022-08-05T18:08:40.570Z,31.00
2022-08-05T18:11:23.637Z,30.90
2022-08-05T18:13:53.923Z,30.90
2022-08-05T18:16:21.544Z,30.70
2022-08-05T18:18:50.065Z,30.70
2022-08-05T18:21:19.917Z,30.60
2022-08-05T18:23:53.769Z,30.50
2022-08-05T18:26:27.800Z,30.40
2022-08-05T18:28:57.544Z,30.30
2022-08-05T18:31:25.289Z,30.20
2022-08-05T18:33:52.806Z,30.10
2022-08-05T18:36:20.380Z,30.10
2022-08-05T18:38:55.821Z,30.00
2022-08-05T18:41:56.161Z,29.90
2022-08-05T18:44:10.866Z,29.80
2022-08-05T18:46:41.011Z,29.80
2022-08-05T18:49:30.554Z,29.60
2022-08-05T18:52:32.902Z,29.60
2022-08-05T18:55:02.773Z,29.50
2022-08-05T18:57:36.261Z,29.50
2022-08-05T19:00:20.292Z,29.40
2022-08-05T19:02:48.615Z,29.30
2022-08-05T19:06:12.565Z,29.30
2022-08-05T19:08:13.597Z,29.20
2022-08-05T19:10:42.833Z,29.10
2022-08-05T19:13:12.409Z,29.00
2022-08-05T19:16:00.118Z,29.00
2022-08-05T19:18:32.024Z,28.90
2022-08-05T19:20:59.911Z,28.80
2022-08-05T19:24:07.035Z,28.80
2022-08-05T19:26:16.759Z,28.70
2022-08-05T19:28:44.285Z,28.70
2022-08-05T19:31:18.019Z,28.60
2022-08-05T19:33:56.900Z,28.50
2022-08-05T19:36:29.251Z,28.50
2022-08-05T19:39:01.420Z,28.40
2022-08-05T19:42:06.351Z,28.30
2022-08-05T19:44:19.688Z,28.30
2022-08-05T19:46:47.409Z,28.20
2022-08-05T19:49:18.096Z,28.10
2022-08-05T19:52:06.121Z,28.10
2022-08-05T19:54:35.451Z,28.00
2022-08-05T19:57:09.212Z,28.00
2022-08-05T19:59:56.536Z,27.90
2022-08-05T20:02:31.404Z,27.80
2022-08-05T20:04:59.997Z,27.80
2022-08-05T20:07:48.381Z,27.70
2022-08-05T20:10:22.167Z,27.70
2022-08-05T20:12:52.031Z,27.60
2022-08-05T20:15:23.073Z,27.50
2022-08-05T20:18:32.559Z,27.50
2022-08-05T20:20:57.864Z,27.40
2022-08-05T20:23:40.526Z,27.40
2022-08-05T20:26:18.447Z,27.40
2022-08-05T20:28:51.494Z,27.30
2022-08-05T20:31:42.785Z,27.30
2022-08-05T20:34:15.890Z,27.20
2022-08-05T20:36:44.274Z,27.20
2022-08-05T20:39:13.353Z,27.20
2022-08-05T20:41:43.257Z,27.10
2022-08-05T20:44:18.477Z,27.10
2022-08-05T20:46:58.317Z,27.10
2022-08-05T20:49:26.089Z,27.10
2022-08-05T20:51:55.298Z,27.20
2022-08-05T20:54:55.241Z,27.20
2022-08-05T20:57:42.754Z,27.30
2022-08-05T21:00:19.891Z,27.30
2022-08-05T21:02:54.560Z,27.30
2022-08-05T21:05:24.270Z,27.30
2022-08-05T21:07:52.135Z,27.40
2022-08-05T21:10:20.684Z,27.50
2022-08-05T21:13:02.663Z,27.60
2022-08-05T21:15:36.666Z,27.70
2022-08-05T21:18:04.499Z,27.80
2022-08-05T21:20:32.989Z,27.90
2022-08-05T21:23:00.957Z,27.90
2022-08-05T21:25:34.016Z,27.90
2022-08-05T21:28:03.290Z,27.90
2022-08-05T21:30:31.499Z,27.80
2022-08-05T21:32:58.781Z,27.80
2022-08-05T21:35:29.731Z,27.70
2022-08-05T21:38:10.709Z,27.70
2022-08-05T21:40:39.703Z,27.70
2022-08-05T21:43:08.600Z,27.70
2022-08-05T21:45:57.720Z,27.70
2022-08-05T21:48:28.588Z,27.70
2022-08-05T21:50:57.395Z,27.70
2022-08-05T21:53:27.565Z,27.70
2022-08-05T21:56:06.370Z,27.70
2022-08-05T21:58:56.894Z,27.70
2022-08-05T22:01:25.058Z,27.80
2022-08-05T22:03:53.756Z,27.80
2022-08-05T22:06:34.856Z,27.70
2022-08-05T22:09:15.122Z,27.70
2022-08-05T22:11:48.096Z,27.60
2022-08-05T22:14:35.572Z,27.60
2022-08-05T22:17:06.611Z,27.60
2022-08-05T22:20:00.723Z,27.50
2022-08-05T22:22:28.263Z,27.40
2022-08-05T22:25:27.559Z,27.40
2022-08-05T22:28:08.857Z,27.40
2022-08-05T22:30:44.109Z,27.40
2022-08-05T22:33:58.042Z,27.40
2022-08-05T22:36:10.112Z,27.30
2022-08-05T22:38:37.323Z,27.30
2022-08-05T22:41:09.594Z,27.30
2022-08-05T22:43:38.173Z,27.30
2022-08-05T22:46:13.682Z,27.30
2022-08-05T22:48:51.047Z,27.20
2022-08-05T22:51:23.184Z,27.20
2022-08-05T22:53:57.237Z,27.20
2022-08-05T22:56:30.164Z,27.20
2022-08-05T22:59:04.640Z,27.20
2022-08-05T23:02:03.865Z,27.20
2022-08-05T23:04:33.835Z,27.20
2022-08-05T23:07:01.613Z,27.20
2022-08-05T23:09:57.067Z,27.20
2022-08-05T23:12:17.928Z,27.30
2022-08-05T23:14:45.293Z,27.40
2022-08-05T23:17:34.328Z,27.40
2022-08-05T23:20:16.989Z,27.40
2022-08-05T23:22:48.331Z,27.40
2022-08-05T23:25:52.523Z,27.40
2022-08-05T23:28:07.893Z,27.50
2022-08-05T23:30:40.526Z,27.40
2022-08-05T23:33:16.224Z,27.50
2022-08-05T23:35:50.572Z,27.40
2022-08-05T23:38:18.351Z,27.40
2022-08-05T23:40:49.722Z,27.40
2022-08-05T23:43:25.685Z,27.30
2022-08-05T23:46:20.346Z,27.30
2022-08-05T23:49:00.679Z,27.30
2022-08-05T23:51:54.936Z,27.30
2022-08-05T23:54:30.117Z,27.20
2022-08-05T23:57:03.675Z,27.10
2022-08-05T23:59:37.633Z,27.20
